Airfield :
LOGIN :

Register | Disclaimer

   EN    FR    IT 

 










Legend :    VFR   Marginal VFR   IFR   Intensive IFR   Very Intensive IFR
Visi :
Ceiling :
>= 8 km
>= 3000ft
5 to 8 km
1000 to 3000 ft
1500m to 5 km
500 to 1000 ft
800 to 1500m
200 to 500 ft
< 800m
< 200 ft
Symbols :   Thunderstorms  Fog  Heavy snow  Heavy precipitations  Wind > 20 kt
SIGMETs :     Misc.  Thunderstorms  Icing  Turbulence  Mountain Waves  Volcanic Ashes






- Airport Elevation : 154 ft
- IATA code : SZZ


EPSC - Szczecin Goleniow

CURRENT METAR :
  • 240530Z 26011KT 230V290 9999 -SHRA SCT014 BKN017CB 04/02 Q1013

EXPIRED METARs :
  • 240500Z 26011KT 9999 -SHRA FEW009 BKN014CB 04/02 Q1012
  • 240430Z 27012KT 9999 -SHRA FEW008 BKN015TCU 04/02 Q1012
  • 240400Z 27013KT 9999 FEW008 BKN015 OVC018 04/02 Q1012
  • 240330Z 27014KT 9999 SCT014TCU OVC017 04/02 Q1011
  • 240300Z 27014KT 9999 FEW007 BKN015 04/02 Q1011

TAF TAF EPSC
Valid from the 24 at 06:00 until the 25 at 06:00 UTC


240530Z 2406/2506 26012KT 9999 SCT035
TEMPO 2406/2412 27015G25KT
PROB40
TEMPO 2406/2409 -SHRA SCT009 BKN014TCU
BECMG 2414/2417 16010KT 4000 -RA BKN007 OVC012
PROB40 2415/2503 2500 RA RASN OVC003
BECMG 2503/2506 23012KT



MET'MAP, your aeronautical weather chart ! - Copyright ORBIFLY December 2007 - Disclaimer

ORBIFLY MET'MAP TEAM :

Programming & Development : Alexandra Zaïnal
Concept & original design : Baudouin d'Aumeries
Assistance for programming : Marc-Olivier Méhu
Technical & hardware support : Manuel Goepfert

Contact : metmap@orbifly.com




SOURCES & CREDITS :

   NOAA